KBIL/BIL METAR and TAF weather

Enter ICAO airport designator
Station Type Date Time Source
KBIL METAR 2020/09/27 02:53 UTC NOAA

KBIL 270253Z 32016KT 10SM FEW100 13/M08 A2995 RMK AO2 SLP131 T01281083 53021


Station Type Date Time Source
KBIL Decoded METAR 2020/09/27 02:53 UTC NOAA

LOGAN INTERNATIONAL AIRPORT, MT, United States (KBIL) 45-49N 108-33W 1091M
Sep 26, 2020 - 10:53 PM EDT / 2020.09.27 0253 UTC
Wind: from the NW (320 degrees) at 18 MPH (16 KT):0
Visibility: 10 mile(s):0
Sky conditions: mostly clear
Temperature: 55.0 F (12.8 C)
Dew Point: 17.1 F (-8.3 C)
Relative Humidity: 22%
Pressure (altimeter): 29.95 in. Hg (1014 hPa)
Pressure tendency: 0.06 inches (2.1 hPa) higher than three hours ago
ob: KBIL 270253Z 32016KT 10SM FEW100 13/M08 A2995 RMK AO2 SLP131 T01281083 53021
cycle: 3

Station Type Date Time Source
KBIL TAF 2020/09/27 02:59 UTC NOAA

TAF
AMD KBIL 270159Z 2702/2724 32018KT P6SM FEW100
FM270500 29015G22KT P6SM BKN100
FM271000 28014G21KT P6SM VCSH BKN080
FM271800 33016G23KT P6SM SCT070 BKN100

Example: see airport list